Hawaii METAR Reports

 

PHOG - Kahului, Hawaii, USA
Distance from station: WNW 8mi, 13km
Updated: Sat, 26-May-2018 4:54pm HST
Mostly Cloudy
Mostly Cloudy
 Wind from NE
Wind: NE 13 mph , 20 km/h, Gust: 25 mph , 41 km/h
Temperature: 77°F , 25°C
Dew Point: 68°F , 20°C
Humidity: 74%
Barometer: 30.01 inHg , 1016.3 hPa
Clouds: Mostly Cloudy
Visibility: 10 miles , 16 km
Cloud details: Few Clouds 2500 ft
Partly Cloudy 3500 ft
Mostly Cloudy 5500 ft
2018/05/27 02:54 PHOG 270254Z 05011G22KT 10SM FEW025 SCT035 BKN055 25/20 A3001
PHJH - Lahaina/West Mau, Hawaii, USA
Distance from station: WNW 24mi, 39km
Updated: Sat, 26-May-2018 4:45pm HST
Mostly Cloudy
Mostly Cloudy
 Wind from NE
Wind: NE 15 mph , 24 km/h
Temperature: 77°F , 25°C
Dew Point: 66°F , 19°C
Humidity: 69%
Barometer: 30.01 inHg , 1016.3 hPa
Clouds: Mostly Cloudy
Visibility: 10 miles , 16 km
Cloud details: Partly Cloudy 3500 ft
Mostly Cloudy 5500 ft
2018/05/27 02:45 PHJH 270245Z 05013KT 10SM SCT035 BKN055 25/19 A3001
 
PHNY - Lanai City Airpo, Hawaii, USA
Distance from station: W 40mi, 65km
Updated: Sat, 26-May-2018 4:56pm HST
Few Clouds
Few Clouds
 Wind from NE
Wind: NE 17 mph , 28 km/h, Gust: 25 mph , 41 km/h
Temperature: 73°F , 23°C
Dew Point: 64°F , 18°C
Humidity: 74%
Barometer: 30.05 inHg , 1017.6 hPa
Clouds: Few Clouds
Visibility: 10 miles , 16 km
Cloud details: Few Clouds 4500 ft
2018/05/27 02:56 PHNY 270256Z AUTO 05015G22KT 10SM FEW045 23/18 A3005 RMK AO2 PK WND 05026/0220 SLP155 T02280183 56010
PHMK - Molokai, Hawaii, USA
Distance from station: WNW 55mi, 88km
Updated: Sat, 26-May-2018 4:54pm HST
Clear
Clear
 Wind from NE
Wind: NE 15 mph , 24 km/h, Gust: 25 mph , 41 km/h
Temperature: 79°F , 26°C
Dew Point: 66°F , 19°C
Humidity: 65%
Barometer: 30.01 inHg , 1016.3 hPa
Clouds: Clear
Visibility: 10 miles , 16 km
2018/05/27 02:54 PHMK 270254Z 04013G22KT 10SM CLR 26/19 A3001 RMK AO2 SLP165 T02610189 58009
 
PHKO - Kailua/Kona, Hawaii, USA
Distance from station: SSE 79mi, 128km
Updated: Sat, 26-May-2018 4:53pm HST
Haze, Mostly cloudy
Haze, Mostly cloudy
 Wind from WSW
Wind: WSW 8 mph , 13 km/h
Temperature: 81°F , 27°C
Heat Index: 83°F , 28°C
Dew Point: 66°F , 19°C
Humidity: 62%
Barometer: 29.96 inHg , 1014.6 hPa
Summary: Haze
Clouds: Mostly Cloudy
Visibility: 6 miles , 10 km
Cloud details: Partly Cloudy 1500 ft
Mostly Cloudy 6500 ft
2018/05/27 02:53 PHKO 270253Z 24007KT 6SM HZ SCT015 BKN065 27/19 A2996 RMK AO2 SLP145 T02720194 56006
PHSF - Bradshaw Aaf/Haw, Hawaii, USA
Distance from station: SE 90mi, 145km
Updated: Fri, 25-May-2018 5:56am HST
NOT Current
Mostly Cloudy
Mostly Cloudy
 Wind from S
Wind: S 5 mph , 7 km/h
Clouds: Mostly Cloudy
Visibility: 10 miles , 16 km
Cloud details: Mostly Cloudy 1000 ft
2018/05/25 15:56 PHSF 251556Z 17004KT 10SM BKN010 M M RMK AO2 SLPNO WND DATA ESTMD PWINO $
 
PHNG - Kaneohe Mcas, Hawaii, USA
Distance from station: WNW 102mi, 164km
Updated: Sat, 26-May-2018 4:57pm HST
Overcast
Overcast
 Wind from ENE
Wind: ENE 9 mph , 15 km/h, Gust: 16 mph , 26 km/h
Temperature: 79°F , 26°C
Dew Point: 70°F , 21°C
Humidity: 74%
Barometer: 30.00 inHg , 1015.9 hPa
Clouds: Overcast
Visibility: 10 miles , 16 km
Cloud details: Mostly Cloudy 1600 ft
Mostly Cloudy 2400 ft
Overcast 4100 ft
2018/05/27 02:57 PHNG 270257Z AUTO 06008G14KT 10SM BKN016 BKN024 OVC041 26/21 A3000 RMK AO2 SLP155 T02560206 56008 $
PHNL - Honolulu, Hawaii, USA
Distance from station: WNW 108mi, 174km
Updated: Sat, 26-May-2018 4:53pm HST
Mostly Cloudy
Mostly Cloudy
 Wind from E
Wind: E 24 mph , 39 km/h, Gust: 28 mph , 44 km/h
Temperature: 81°F , 27°C
Heat Index: 83°F , 28°C
Dew Point: 64°F , 18°C
Humidity: 58%
Barometer: 30.00 inHg , 1015.9 hPa
Clouds: Mostly Cloudy
Visibility: 10 miles , 16 km
Cloud details: Few Clouds 2500 ft
Partly Cloudy 4700 ft
Mostly Cloudy 21000 ft
2018/05/27 02:53 PHNL 270253Z 08021G24KT 10SM FEW025 SCT047 BKN210 27/18 A3000 RMK AO2 SLP159 T02670178 58014
 
PHTO - Hilo, Hawaii, USA
Distance from station: SE 114mi, 183km
Updated: Sat, 26-May-2018 4:53pm HST
Overcast
Overcast
 Wind from ENE
Wind: ENE 9 mph , 15 km/h
Temperature: 77°F , 25°C
Dew Point: 66°F , 19°C
Humidity: 69%
Barometer: 30.03 inHg , 1016.9 hPa
Clouds: Overcast
Visibility: 10 miles , 16 km
Cloud details: Overcast 4000 ft
2018/05/27 02:53 PHTO 270253Z 07008KT 10SM OVC040 25/19 A3003 RMK AO2 SLP168 T02500194 56008
PHJR - Kalaeloa, Hawaii, USA
Distance from station: WNW 117mi, 189km
Updated: Sat, 26-May-2018 4:53pm HST
Few Clouds
Few Clouds
 Wind from E
Wind: E 9 mph , 15 km/h, Gust: 18 mph , 30 km/h
Temperature: 81°F , 27°C
Heat Index: 83°F , 28°C
Dew Point: 64°F , 18°C
Humidity: 58%
Barometer: 30.02 inHg , 1016.6 hPa
Clouds: Few Clouds
Visibility: 10 miles , 16 km
Cloud details: Few Clouds 3600 ft
2018/05/27 02:53 PHJR 270253Z 08008G16KT 10SM FEW036 27/18 A3002 RMK AO2 SLP170 T02670183 56011
 
PHHI - Wheeler Afb/Oahu, Hawaii, USA
Distance from station: WNW 120mi, 193km
Updated: Sat, 26-May-2018 4:56pm HST
Partly Cloudy
Partly Cloudy
 Wind from E
Wind: E 7 mph , 11 km/h
Temperature: 75°F , 24°C
Dew Point: 66°F , 19°C
Humidity: 74%
Barometer: 30.02 inHg , 1016.6 hPa
Clouds: Partly Cloudy
Visibility: 10 miles , 16 km
Cloud details: Partly Cloudy 2500 ft
2018/05/27 02:56 PHHI 270256Z AUTO 08006KT 10SM SCT025 24/19 A3002 RMK AO2 SLP156 60000 T02380186 57013 $
PHLI - Lihue/Kauai Is, Hawaii, USA
Distance from station: WNW 209mi, 336km
Updated: Sat, 26-May-2018 4:53pm HST
Overcast
Overcast
 Wind from NE
Wind: NE 10 mph , 17 km/h
Temperature: 79°F , 26°C
Dew Point: 70°F , 21°C
Humidity: 74%
Barometer: 30.06 inHg , 1017.9 hPa
Clouds: Overcast
Visibility: 10 miles , 16 km
Cloud details: Few Clouds 1800 ft
Few Clouds 2300 ft
Overcast 5000 ft
2018/05/27 02:53 PHLI 270253Z 05009KT 10SM FEW018 FEW023 OVC050 26/21 A3006 RMK AO2 SLP176 T02560211 56009
 
PHBK - Barking Sands/Ka, Hawaii, USA
Distance from station: WNW 237mi, 382km
Updated: Sat, 26-May-2018 4:56pm HST
Mostly Cloudy
Mostly Cloudy
 Wind from WNW
Wind: WNW 7 mph , 11 km/h
Temperature: 77°F , 25°C
Dew Point: 70°F , 21°C
Humidity: 79%
Barometer: 30.01 inHg , 1016.3 hPa
Clouds: Mostly Cloudy
Visibility: 10 miles , 16 km
Cloud details: Mostly Cloudy 5000 ft
2018/05/27 02:56 PHBK 270256Z AUTO 29006KT 10SM BKN050 25/21 A3001 RMK AO2 SLP165 T02500211 56010